Time;durP1;ratioP1;P1;durP2;ratioP2;P2;SDS_P1;SDS_P2;PMS_P1;PMS_P2;Temp;Humidity;BMP_temperature;BMP_pressure;BME280_temperature;BME280_humidity;BME280_pressure;Samples;Min_cycle;Max_cycle;Signal;HPM_P1;HPM_P2
2022/05/28 00:00:08;;;;;;;1.58;1.25;;;;;;;22.91;40.58;101095.75;5049124;28;20028;-47
2022/05/28 00:02:33;;;;;;;1.35;1.10;;;;;;;22.93;40.15;101098.38;5018095;28;20033;-41
2022/05/28 00:04:58;;;;;;;1.67;1.58;;;;;;;22.92;40.28;101108.00;5028561;28;20037;-45
2022/05/28 00:07:24;;;;;;;1.65;1.55;;;;;;;22.92;40.59;101113.25;5036855;28;20029;-44
2022/05/28 00:09:52;;;;;;;1.35;1.00;;;;;;;22.93;39.90;101130.78;5036062;28;20385;-46
2022/05/28 00:12:17;;;;;;;1.60;1.48;;;;;;;22.89;40.38;101115.88;5052779;28;20021;-42
2022/05/28 00:14:42;;;;;;;1.60;1.17;;;;;;;22.93;40.16;101114.13;5038123;28;20497;-44
2022/05/28 00:17:08;;;;;;;3.28;1.15;;;;;;;22.91;40.33;101106.25;5042891;28;20040;-46
2022/05/28 00:19:33;;;;;;;3.67;1.45;;;;;;;22.91;39.96;101090.50;5040263;28;20039;-44
2022/05/28 00:21:58;;;;;;;3.55;1.50;;;;;;;22.91;39.81;101093.13;5036585;28;20086;-42
2022/05/28 00:24:26;;;;;;;1.70;1.38;;;;;;;22.91;40.42;101087.88;5030339;28;20451;-44
2022/05/28 00:26:51;;;;;;;1.65;1.42;;;;;;;22.91;39.80;101085.25;5052578;28;20124;-44
2022/05/28 00:29:19;;;;;;;2.13;1.17;;;;;;;22.91;40.08;101086.09;5071864;22;20135;-56
2022/05/28 00:31:44;;;;;;;2.10;1.33;;;;;;;22.90;40.15;101072.97;5068409;28;20032;-53
2022/05/28 00:34:10;;;;;;;1.40;1.30;;;;;;;22.91;40.31;101090.50;5044205;28;20055;-56
2022/05/28 00:36:35;;;;;;;1.25;1.15;;;;;;;22.91;39.86;101090.50;5066641;28;20037;-55
2022/05/28 00:39:01;;;;;;;1.73;1.10;;;;;;;22.87;40.11;101109.72;5054044;28;20101;-54
2022/05/28 00:41:32;;;;;;;1.17;1.08;;;;;;;22.90;40.32;101130.75;5045697;28;20029;-59
2022/05/28 00:43:57;;;;;;;0.90;0.90;;;;;;;22.89;40.03;101144.75;5049989;28;20040;-58
2022/05/28 00:46:24;;;;;;;4.10;1.40;;;;;;;22.89;40.01;101124.59;5035249;28;20032;-58
2022/05/28 00:48:54;;;;;;;1.30;0.93;;;;;;;22.89;40.07;101118.50;5032647;28;20037;-57
2022/05/28 00:51:28;;;;;;;1.95;1.38;;;;;;;22.90;40.32;101109.75;5027360;28;20469;-58
2022/05/28 00:53:56;;;;;;;2.80;1.45;;;;;;;22.90;39.80;101117.63;5031735;28;20039;-59
2022/05/28 00:56:22;;;;;;;1.80;1.02;;;;;;;22.90;40.25;101136.00;5033291;28;20126;-58
2022/05/28 00:58:48;;;;;;;0.98;0.80;;;;;;;22.88;40.09;101122.00;5044717;28;20055;-58
2022/05/28 01:01:15;;;;;;;2.28;1.00;;;;;;;22.91;40.47;101107.13;5047484;28;20037;-59
2022/05/28 01:04:04;;;;;;;1.20;1.10;;;;;;;22.90;40.53;101107.13;5053477;28;20108;-58
2022/05/28 01:06:35;;;;;;;2.95;1.35;;;;;;;22.89;40.13;101110.63;5068369;28;20477;-58
2022/05/28 01:09:24;;;;;;;1.17;1.08;;;;;;;22.80;40.08;101097.41;5044901;28;20125;-58
2022/05/28 01:12:05;;;;;;;0.90;0.90;;;;;;;22.88;39.84;101116.75;5051103;28;20094;-58
2022/05/28 01:14:40;;;;;;;2.25;1.00;;;;;;;22.89;39.81;101108.00;5043204;28;20032;-58
2022/05/28 01:17:07;;;;;;;;;;;;;;;22.89;39.97;101123.75;5052630;28;20082;-58
2022/05/28 01:19:38;;;;;;;1.30;1.00;;;;;;;22.87;39.87;101121.09;5030668;28;20019;-57
2022/05/28 01:22:37;;;;;;;2.85;1.20;;;;;;;22.87;40.57;101120.22;5040719;28;20028;-58
2022/05/28 01:25:26;;;;;;;3.33;0.88;;;;;;;22.87;39.98;101109.72;5059126;28;20035;-56
2022/05/28 01:27:57;;;;;;;1.27;0.95;;;;;;;22.83;40.17;101107.97;5044563;28;20056;-59
2022/05/28 01:30:25;;;;;;;0.80;0.80;;;;;;;22.88;40.05;101103.59;5029080;28;20133;-57
2022/05/28 01:32:52;;;;;;;1.10;1.10;;;;;;;22.86;40.38;101097.47;5048580;28;20029;-58
2022/05/28 01:35:19;;;;;;;1.60;0.90;;;;;;;22.89;40.37;101092.22;5050965;28;20482;-59
2022/05/28 01:37:45;;;;;;;3.05;1.20;;;;;;;22.83;39.96;101072.06;5054482;28;20045;-58
2022/05/28 01:40:14;;;;;;;1.33;1.23;;;;;;;22.88;39.81;101077.34;5050569;28;20047;-59
2022/05/28 01:42:43;;;;;;;0.95;0.95;;;;;;;22.87;40.16;101073.81;5052287;28;20100;-58
2022/05/28 01:45:09;;;;;;;2.78;1.10;;;;;;;22.86;40.15;101071.22;5035970;28;20036;-59
2022/05/28 01:47:35;;;;;;;1.77;1.50;;;;;;;22.86;40.36;101068.59;5055076;28;20481;-58
2022/05/28 01:50:02;;;;;;;0.85;0.85;;;;;;;22.87;40.01;101078.22;5035417;28;20086;-58
2022/05/28 01:52:28;;;;;;;0.77;0.77;;;;;;;22.87;39.99;101062.47;5071122;28;20083;-58
2022/05/28 01:54:54;;;;;;;2.03;0.88;;;;;;;22.84;40.31;101057.19;5034677;28;20303;-58
2022/05/28 01:57:19;;;;;;;2.10;0.98;;;;;;;22.85;40.15;101062.44;5021710;28;20077;-58
2022/05/28 01:59:45;;;;;;;0.90;0.90;;;;;;;22.86;40.20;101065.97;5038531;28;20458;-57
2022/05/28 02:02:12;;;;;;;2.03;1.00;;;;;;;22.86;39.99;101058.06;5043671;28;20074;-59
2022/05/28 02:04:39;;;;;;;1.65;0.85;;;;;;;22.83;40.01;101045.78;5052491;28;20478;-57
2022/05/28 02:07:05;;;;;;;1.00;1.00;;;;;;;22.81;40.30;101036.16;5033525;28;20150;-55
2022/05/28 02:09:38;;;;;;;1.27;1.17;;;;;;;22.84;40.25;101036.19;5034895;28;20073;-57
2022/05/28 02:12:53;;;;;;;0.63;0.63;;;;;;;22.85;39.99;101032.69;5046932;28;20036;-57
2022/05/28 02:15:30;;;;;;;0.60;0.60;;;;;;;22.85;39.93;101041.44;5048486;28;20048;-58
2022/05/28 02:18:20;;;;;;;1.98;1.30;;;;;;;22.85;39.73;101043.19;5045585;28;20469;-57
2022/05/28 02:21:05;;;;;;;1.23;0.77;;;;;;;22.83;39.69;101056.28;5046742;28;20082;-57
2022/05/28 02:23:40;;;;;;;1.02;0.93;;;;;;;22.85;39.90;101058.94;5050363;28;20040;-59
2022/05/28 02:26:13;;;;;;;1.13;0.80;;;;;;;22.84;40.08;101051.94;5041698;28;20037;-57
2022/05/28 02:28:41;;;;;;;0.70;0.70;;;;;;;22.84;40.22;101046.69;5050374;28;20072;-59
2022/05/28 02:31:14;;;;;;;2.38;1.30;;;;;;;22.84;39.97;101041.44;5045809;28;20050;-57
2022/05/28 02:33:39;;;;;;;0.68;0.68;;;;;;;22.83;40.08;101044.94;5047149;28;20044;-57
2022/05/28 02:36:05;;;;;;;0.73;0.73;;;;;;;22.84;39.89;101036.19;5028176;28;20024;-59
2022/05/28 02:38:30;;;;;;;1.40;1.00;;;;;;;22.67;40.01;101013.31;5060119;28;20037;-56
2022/05/28 02:40:55;;;;;;;0.98;0.98;;;;;;;22.81;39.92;101030.91;5066695;28;20028;-59
2022/05/28 02:43:22;;;;;;;1.60;1.33;;;;;;;22.72;40.18;101022.09;5045081;28;20052;-59
2022/05/28 02:45:47;;;;;;;0.80;0.80;;;;;;;22.70;40.19;101013.34;5050610;28;20036;-58
2022/05/28 02:48:13;;;;;;;1.00;0.80;;;;;;;22.82;39.72;101028.28;5053179;28;20028;-58
2022/05/28 02:50:38;;;;;;;3.60;1.25;;;;;;;22.81;40.08;101029.16;5045904;28;20577;-57
2022/05/28 02:53:12;;;;;;;3.20;1.25;;;;;;;22.85;39.73;101032.69;5036374;28;20063;-57
2022/05/28 02:55:37;;;;;;;3.53;1.00;;;;;;;22.82;40.03;101033.53;5068015;28;20043;-59
2022/05/28 02:58:06;;;;;;;0.65;0.65;;;;;;;22.81;39.97;101030.91;5048431;28;20474;-56
2022/05/28 03:00:31;;;;;;;1.15;1.05;;;;;;;22.81;40.26;101036.16;5031713;28;20039;-57
2022/05/28 03:02:56;;;;;;;1.05;1.05;;;;;;;22.83;39.86;101039.69;5052990;28;20040;-59
2022/05/28 03:05:24;;;;;;;2.38;1.10;;;;;;;22.82;40.09;101040.56;5047241;28;20393;-59
2022/05/28 03:07:50;;;;;;;1.80;1.40;;;;;;;22.81;39.85;101041.41;5052092;28;20060;-58
2022/05/28 03:10:16;;;;;;;2.00;1.42;;;;;;;22.82;40.09;101033.53;5061996;28;20127;-58
2022/05/28 03:12:41;;;;;;;0.95;0.95;;;;;;;22.82;39.94;101038.78;5053333;28;20048;-58
2022/05/28 03:15:08;;;;;;;0.50;0.50;;;;;;;22.80;39.92;101034.38;5069119;28;20413;-58
2022/05/28 03:17:37;;;;;;;0.60;0.57;;;;;;;22.80;40.20;101039.63;5038347;28;20124;-58
2022/05/28 03:20:04;;;;;;;0.68;0.68;;;;;;;22.82;40.17;101037.94;5047478;28;20043;-58
2022/05/28 03:22:30;;;;;;;0.80;0.80;;;;;;;22.81;40.16;101036.16;5057811;28;20032;-57
2022/05/28 03:24:56;;;;;;;0.50;0.50;;;;;;;22.69;40.11;101016.84;5034950;28;20470;-58
2022/05/28 03:27:21;;;;;;;2.05;1.27;;;;;;;22.82;40.08;101048.44;5050239;28;20099;-57
2022/05/28 03:29:47;;;;;;;0.93;0.93;;;;;;;22.79;39.85;101037.88;5053069;28;20048;-56
2022/05/28 03:32:12;;;;;;;1.17;1.08;;;;;;;22.82;40.30;101043.19;5055973;28;20047;-59
2022/05/28 03:34:37;;;;;;;1.23;1.13;;;;;;;22.81;39.85;101055.41;5074667;28;20469;-59
2022/05/28 03:37:03;;;;;;;0.90;0.90;;;;;;;22.81;39.87;101049.31;5050440;28;20035;-55
2022/05/28 03:39:29;;;;;;;2.20;1.00;;;;;;;22.77;40.17;101051.88;5031530;28;20053;-56
2022/05/28 03:41:54;;;;;;;2.30;1.23;;;;;;;22.80;40.20;101055.38;5072049;28;20047;-57
2022/05/28 03:44:20;;;;;;;2.47;1.00;;;;;;;22.77;39.90;101046.63;5047521;28;20032;-57
2022/05/28 03:46:45;;;;;;;0.75;0.75;;;;;;;22.80;39.71;101050.13;5043297;28;20045;-57
2022/05/28 03:49:16;;;;;;;0.75;0.70;;;;;;;22.80;40.29;101050.13;5049465;28;20119;-59
2022/05/28 03:51:42;;;;;;;0.98;0.98;;;;;;;22.81;39.66;101062.44;5064249;28;20127;-58
2022/05/28 03:54:07;;;;;;;1.73;1.08;;;;;;;22.81;40.52;101057.19;5056023;28;20123;-58
2022/05/28 03:56:35;;;;;;;0.75;0.75;;;;;;;22.82;39.72;101053.69;5056113;28;20037;-57
2022/05/28 03:59:02;;;;;;;1.00;0.70;;;;;;;22.81;40.17;101051.94;5022056;28;20029;-57
2022/05/28 04:01:28;;;;;;;0.80;0.80;;;;;;;22.83;40.15;101051.03;5033371;28;20025;-58
2022/05/28 04:03:53;;;;;;;1.17;0.90;;;;;;;22.85;39.94;101064.19;5050241;28;20392;-58
2022/05/28 04:06:18;;;;;;;5.03;1.08;;;;;;;22.83;39.94;101055.44;5066751;28;20461;-59
2022/05/28 04:08:44;;;;;;;0.68;0.68;;;;;;;22.88;40.14;101061.59;5072194;28;20039;-58
2022/05/28 04:11:09;;;;;;;0.68;0.68;;;;;;;22.89;39.62;101055.47;5049699;28;20481;-59
2022/05/28 04:13:37;;;;;;;0.80;0.80;;;;;;;22.96;39.52;101064.22;5053491;28;20036;-59
2022/05/28 04:16:06;;;;;;;0.88;0.88;;;;;;;22.83;39.41;101037.06;5073258;28;20036;-58
2022/05/28 04:18:31;;;;;;;0.90;0.75;;;;;;;22.95;39.93;101066.00;5052992;28;20040;-58
2022/05/28 04:20:59;;;;;;;1.45;0.95;;;;;;;22.93;40.28;101067.75;5039257;28;20048;-59
2022/05/28 04:23:24;;;;;;;4.57;0.93;;;;;;;22.90;40.06;101068.59;5071851;28;20037;-58
2022/05/28 04:25:50;;;;;;;2.97;0.85;;;;;;;22.88;40.04;101074.72;5046319;28;20043;-59
2022/05/28 04:28:15;;;;;;;0.90;0.90;;;;;;;22.77;40.06;101057.13;5072559;28;20071;-58
2022/05/28 04:30:41;;;;;;;1.10;1.00;;;;;;;22.87;40.49;101068.56;5037767;28;20032;-57
2022/05/28 04:33:09;;;;;;;1.55;0.95;;;;;;;22.90;40.13;101067.72;5066260;28;20078;-58
2022/05/28 04:35:34;;;;;;;4.15;0.93;;;;;;;22.89;39.69;101077.34;5049989;28;20044;-58
2022/05/28 04:38:00;;;;;;;0.98;0.98;;;;;;;22.88;40.35;101069.47;5037175;28;20020;-57
2022/05/28 04:40:25;;;;;;;0.68;0.68;;;;;;;22.89;40.29;101076.47;5051425;28;20025;-58
2022/05/28 04:42:51;;;;;;;0.93;0.93;;;;;;;22.88;40.39;101064.22;5069899;28;20048;-59
2022/05/28 04:45:16;;;;;;;1.23;1.13;;;;;;;22.76;39.88;101038.75;5028061;28;20162;-59
2022/05/28 04:47:41;;;;;;;0.70;0.70;;;;;;;22.84;40.08;101046.69;5029451;28;20045;-58
2022/05/28 04:50:07;;;;;;;0.88;0.88;;;;;;;22.90;39.80;101067.72;5043617;28;20381;-58
2022/05/28 04:52:33;;;;;;;0.77;0.77;;;;;;;22.88;39.90;101064.22;5052053;28;20501;-59
2022/05/28 04:54:58;;;;;;;1.00;0.52;;;;;;;22.90;40.09;101065.09;5053943;28;20045;-58
2022/05/28 04:57:26;;;;;;;0.93;0.85;;;;;;;22.90;40.21;101072.97;5043101;28;20033;-58
2022/05/28 04:59:54;;;;;;;1.15;0.70;;;;;;;22.88;40.13;101070.31;5054268;28;20033;-56
2022/05/28 05:02:20;;;;;;;3.10;0.95;;;;;;;22.91;40.16;101074.72;5050680;28;20078;-58
2022/05/28 05:04:45;;;;;;;1.90;1.40;;;;;;;22.90;40.21;101072.97;5054810;28;20056;-58
2022/05/28 05:07:10;;;;;;;1.48;1.38;;;;;;;22.92;39.94;101081.75;5036366;28;20066;-58
2022/05/28 05:09:36;;;;;;;2.38;0.95;;;;;;;22.89;40.22;101076.47;5047163;28;20484;-56
2022/05/28 05:12:01;;;;;;;1.25;1.13;;;;;;;22.90;39.92;101081.72;5065241;28;20117;-59
2022/05/28 05:14:27;;;;;;;2.00;1.05;;;;;;;22.89;40.03;101081.72;5060920;28;20064;-57
2022/05/28 05:16:52;;;;;;;0.63;0.63;;;;;;;22.80;40.35;101060.63;5065733;28;20488;-58
2022/05/28 05:19:17;;;;;;;0.73;0.60;;;;;;;22.76;40.20;101065.88;5039199;28;20029;-58
2022/05/28 05:21:43;;;;;;;1.13;1.00;;;;;;;22.91;40.09;101086.09;5063892;28;20135;-59
2022/05/28 05:24:10;;;;;;;1.02;0.80;;;;;;;22.90;40.10;101078.22;5070718;28;20585;-58
2022/05/28 05:26:36;;;;;;;0.73;0.73;;;;;;;22.91;39.97;101082.63;5072481;28;20142;-58
2022/05/28 05:29:01;;;;;;;0.90;0.90;;;;;;;22.91;40.16;101090.50;5052897;28;20533;-57
2022/05/28 05:31:26;;;;;;;1.40;1.30;;;;;;;22.91;39.79;101085.25;5048099;28;20052;-58
2022/05/28 05:33:52;;;;;;;1.45;1.00;;;;;;;22.81;39.89;101072.94;5044229;28;20036;-59
2022/05/28 05:36:17;;;;;;;1.25;0.82;;;;;;;22.79;40.11;101065.03;5052861;28;20242;-59
2022/05/28 05:38:45;;;;;;;0.70;0.70;;;;;;;22.93;39.80;101088.75;5045281;28;20186;-58
2022/05/28 05:41:11;;;;;;;1.45;0.77;;;;;;;22.91;40.04;101090.50;5050514;28;20050;-58
2022/05/28 05:43:36;;;;;;;0.77;0.77;;;;;;;22.92;40.10;101102.75;5051393;28;20041;-57
2022/05/28 05:46:02;;;;;;;0.80;0.80;;;;;;;22.93;40.39;101104.50;5052201;28;20033;-59
2022/05/28 05:48:29;;;;;;;0.90;0.90;;;;;;;22.94;40.10;101110.63;5071514;28;20465;-57
2022/05/28 05:51:04;;;;;;;2.30;1.10;;;;;;;22.90;40.28;101099.25;5042542;28;20033;-59
2022/05/28 05:53:29;;;;;;;0.80;0.80;;;;;;;22.89;40.01;101086.97;5046711;28;20427;-59
2022/05/28 05:55:54;;;;;;;0.90;0.90;;;;;;;22.90;39.83;101105.34;5053298;28;20036;-59
2022/05/28 05:58:19;;;;;;;0.75;0.75;;;;;;;22.91;39.70;101111.50;5071526;28;20086;-58
2022/05/28 06:00:50;;;;;;;1.60;0.95;;;;;;;22.91;39.85;101111.50;5052051;28;20032;-58
2022/05/28 06:03:16;;;;;;;0.70;0.65;;;;;;;22.91;40.25;101116.75;5065348;28;20041;-59
2022/05/28 06:05:44;;;;;;;1.20;1.10;;;;;;;22.92;40.20;101118.50;5042558;28;20048;-57
2022/05/28 06:08:11;;;;;;;0.90;0.90;;;;;;;22.92;40.04;101113.25;5050356;28;20063;-59
2022/05/28 06:10:36;;;;;;;1.98;1.50;;;;;;;22.91;40.00;101122.00;5068390;28;20032;-56
2022/05/28 06:13:01;;;;;;;0.80;0.80;;;;;;;22.92;39.92;101118.50;5054497;28;20116;-57
2022/05/28 06:15:27;;;;;;;1.50;1.40;;;;;;;22.88;39.82;101114.97;5062389;28;20025;-57
2022/05/28 06:17:52;;;;;;;2.97;1.20;;;;;;;22.91;39.98;101116.75;5043336;28;20478;-59
2022/05/28 06:20:17;;;;;;;1.35;0.98;;;;;;;22.88;39.70;101112.34;5042699;28;20066;-58
2022/05/28 06:22:45;;;;;;;6.22;1.35;;;;;;;22.89;40.26;101114.09;5029471;28;20029;-58
2022/05/28 06:25:10;;;;;;;4.55;1.45;;;;;;;22.89;39.99;101108.00;5052809;28;20032;-58
2022/05/28 06:27:46;;;;;;;;;;;;;;;;;;;;;
2022/05/28 06:30:07;;;;;;;0.80;0.80;;;;;;;22.92;40.10;101115.88;4703598;22;20048;-42
2022/05/28 06:32:35;;;;;;;6.25;1.08;;;;;;;22.90;39.93;101115.84;5064427;28;20090;-41
2022/05/28 06:35:00;;;;;;;1.02;1.00;;;;;;;22.93;40.11;101124.63;5053707;28;20401;-46
2022/05/28 06:37:25;;;;;;;0.90;0.90;;;;;;;22.91;40.21;101116.75;5071463;28;20025;-41
2022/05/28 06:39:51;;;;;;;1.05;0.90;;;;;;;22.92;39.93;101123.75;5052382;28;20039;-47
2022/05/28 06:42:16;;;;;;;4.82;1.20;;;;;;;22.92;40.04;101123.75;5024665;28;20067;-41
2022/05/28 06:44:41;;;;;;;1.02;0.80;;;;;;;22.91;39.82;101132.50;5044158;28;20136;-46
2022/05/28 06:47:10;;;;;;;0.77;0.77;;;;;;;22.90;40.24;101125.50;5071656;28;20381;-40
2022/05/28 06:49:35;;;;;;;2.63;0.93;;;;;;;22.92;39.78;101115.88;5037158;28;20381;-43
2022/05/28 06:52:01;;;;;;;3.08;1.20;;;;;;;22.92;39.94;101123.75;5045902;28;20029;-47
2022/05/28 06:54:31;;;;;;;1.35;1.25;;;;;;;22.88;40.24;101117.59;5054118;28;20024;-42
2022/05/28 06:56:56;;;;;;;1.00;0.93;;;;;;;22.91;39.61;101125.50;5063936;28;20093;-41
2022/05/28 06:59:22;;;;;;;1.33;1.23;;;;;;;22.91;39.96;101114.13;5069461;28;20384;-44
2022/05/28 07:01:47;;;;;;;1.67;1.27;;;;;;;22.92;39.75;101102.75;5071996;28;20095;-43
2022/05/28 07:04:12;;;;;;;1.05;0.98;;;;;;;22.92;39.87;101108.00;5034590;28;20568;-48
2022/05/28 07:06:38;;;;;;;1.35;1.25;;;;;;;22.91;39.98;101103.63;5050639;28;20036;-42
2022/05/28 07:09:05;;;;;;;1.92;0.98;;;;;;;22.94;39.65;101105.38;5063461;28;20388;-48
2022/05/28 07:11:31;;;;;;;0.85;0.73;;;;;;;22.92;39.85;101113.25;5045957;28;20025;-47
2022/05/28 07:13:56;;;;;;;0.95;0.90;;;;;;;22.94;39.67;101111.53;5054357;28;20028;-44
2022/05/28 07:16:21;;;;;;;3.08;1.20;;;;;;;22.91;39.97;101109.72;5047641;28;20033;-46
2022/05/28 07:18:47;;;;;;;1.38;0.88;;;;;;;22.91;39.52;101114.13;5059468;28;20114;-49
2022/05/28 07:21:12;;;;;;;1.70;1.30;;;;;;;22.90;39.87;101125.50;5058417;28;20114;-49
2022/05/28 07:23:38;;;;;;;0.95;0.95;;;;;;;22.90;39.75;101107.13;5056852;28;20156;-42
2022/05/28 07:26:12;;;;;;;0.88;0.85;;;;;;;22.93;40.05;101120.25;5036891;28;20029;-48
2022/05/28 07:28:38;;;;;;;;;;;;;;;22.94;39.87;101122.03;5048807;28;20032;-41
2022/05/28 07:31:06;;;;;;;0.60;0.60;;;;;;;22.90;39.75;101112.38;5044352;28;20266;-44
2022/05/28 07:33:35;;;;;;;2.30;1.35;;;;;;;22.94;40.14;101129.00;5060864;28;20037;-46
2022/05/28 07:36:03;;;;;;;1.05;1.05;;;;;;;22.90;39.58;101118.50;5045397;28;20035;-45
2022/05/28 07:38:29;;;;;;;0.88;0.88;;;;;;;22.91;39.84;101122.00;5039294;28;20485;-45
2022/05/28 07:40:58;;;;;;;1.38;1.33;;;;;;;22.92;39.78;101129.00;5070792;28;20131;-44
2022/05/28 07:43:23;;;;;;;0.60;0.60;;;;;;;22.90;40.06;101143.88;5069401;28;20052;-45
2022/05/28 07:45:49;;;;;;;3.05;1.23;;;;;;;22.91;40.12;101153.53;5043633;28;20063;-42
2022/05/28 07:48:15;;;;;;;1.23;1.13;;;;;;;22.92;40.34;101150.03;5043959;28;20082;-45
2022/05/28 07:50:44;;;;;;;4.40;1.10;;;;;;;22.94;39.87;101139.50;5031669;28;20043;-41
2022/05/28 07:53:10;;;;;;;1.42;0.95;;;;;;;22.90;39.99;101147.38;5055290;28;20033;-41
2022/05/28 07:55:36;;;;;;;1.17;1.10;;;;;;;22.91;40.11;101153.53;5046324;28;20432;-43
2022/05/28 07:58:11;;;;;;;1.27;1.20;;;;;;;22.93;40.09;101162.28;5036240;28;20082;-46
2022/05/28 08:00:39;;;;;;;1.50;1.40;;;;;;;22.95;40.35;101155.31;5048913;28;20082;-40
2022/05/28 08:03:05;;;;;;;2.72;1.58;;;;;;;21.59;37.31;101161.00;5040769;28;20033;-46
2022/05/28 08:05:31;;;;;;;2.97;1.40;;;;;;;21.85;39.12;101144.75;5024014;28;20066;-46
2022/05/28 08:07:56;;;;;;;2.55;2.35;;;;;;;22.20;39.72;101147.69;5055100;28;20105;-42
2022/05/28 08:10:22;;;;;;;1.67;1.52;;;;;;;22.44;39.94;101153.13;5072504;28;20041;-44
2022/05/28 08:12:48;;;;;;;9.63;1.20;;;;;;;22.60;39.86;101148.03;5073584;28;20032;-44
2022/05/28 08:15:13;;;;;;;4.22;1.45;;;;;;;22.69;39.67;101163.84;5035168;28;20021;-44
2022/05/28 08:17:38;;;;;;;1.13;1.10;;;;;;;22.75;39.58;101145.50;5064352;28;20045;-41
2022/05/28 08:20:04;;;;;;;1.90;1.20;;;;;;;22.79;39.88;101142.91;5049093;28;20040;-46
2022/05/28 08:25:13;;;;;;;3.20;1.70;;;;;;;22.85;39.66;101137.72;5062956;28;20039;-44
2022/05/28 08:27:39;;;;;;;3.97;1.65;;;;;;;22.86;39.52;101144.75;5052796;28;20440;-42
2022/05/28 08:30:05;;;;;;;3.63;1.52;;;;;;;22.82;39.59;101132.47;5052786;28;20103;-45
2022/05/28 08:32:30;;;;;;;1.85;1.35;;;;;;;22.86;39.66;101147.38;5069755;28;20036;-46
2022/05/28 08:34:55;;;;;;;5.25;1.13;;;;;;;22.81;39.85;101156.97;5037438;28;20461;-43
2022/05/28 08:37:21;;;;;;;1.02;1.02;;;;;;;22.82;39.82;101158.72;5039248;28;20458;-46
2022/05/28 08:39:46;;;;;;;2.15;1.20;;;;;;;22.85;39.27;101174.50;5054332;28;20040;-41
2022/05/28 08:42:17;;;;;;;1.30;1.20;;;;;;;22.86;39.51;101189.38;5048970;28;20074;-40
2022/05/28 08:44:43;;;;;;;2.05;1.05;;;;;;;22.88;39.77;101185.03;5069141;28;20528;-43
2022/05/28 08:47:25;;;;;;;4.88;1.25;;;;;;;22.89;39.55;101176.28;5062546;28;20033;-47
2022/05/28 08:49:53;;;;;;;1.60;1.25;;;;;;;22.91;39.62;101192.91;5052381;28;20036;-46
2022/05/28 08:52:25;;;;;;;2.55;1.20;;;;;;;22.91;39.36;101195.53;5047449;28;20041;-43
2022/05/28 08:54:57;;;;;;;2.45;1.48;;;;;;;22.93;39.37;101199.06;5070470;28;20081;-44
2022/05/28 08:57:54;;;;;;;1.48;1.30;;;;;;;22.88;39.65;101198.16;5053748;28;20587;-44
2022/05/28 09:00:47;;;;;;;1.63;1.13;;;;;;;22.89;39.82;101206.03;5067811;28;20086;-42
2022/05/28 09:03:12;;;;;;;2.35;1.20;;;;;;;22.90;39.45;101214.78;5069072;28;20044;-43
2022/05/28 09:05:46;;;;;;;0.88;0.88;;;;;;;22.88;39.76;101200.78;5072047;28;20075;-46
2022/05/28 09:08:12;;;;;;;1.60;1.50;;;;;;;22.88;39.63;101206.88;5048810;28;20077;-46
2022/05/28 09:10:46;;;;;;;1.13;1.13;;;;;;;22.89;39.56;101213.03;5051606;28;20036;-41
2022/05/28 09:13:45;;;;;;;2.42;1.75;;;;;;;22.91;39.73;101211.31;5038717;28;20037;-48
2022/05/28 09:16:25;;;;;;;1.67;1.33;;;;;;;22.92;39.77;101218.31;5070468;28;20454;-44
2022/05/28 09:18:52;;;;;;;1.38;1.25;;;;;;;22.93;39.31;101206.94;5064712;28;20040;-42
2022/05/28 09:21:18;;;;;;;1.65;1.55;;;;;;;22.93;39.41;101209.56;5053050;28;20464;-43
2022/05/28 09:23:52;;;;;;;2.47;1.55;;;;;;;22.95;39.38;101212.19;5046651;28;20111;-50
2022/05/28 09:26:42;;;;;;;1.48;1.38;;;;;;;22.96;39.80;101214.84;5049119;28;20465;-42
2022/05/28 09:29:21;;;;;;;1.00;1.00;;;;;;;22.96;39.51;101209.59;5041777;28;20043;-45
2022/05/28 09:32:06;;;;;;;1.20;1.10;;;;;;;22.95;40.10;101202.56;5066555;28;20040;-42
2022/05/28 09:34:37;;;;;;;;;;;;;;;22.96;40.08;101204.34;5065482;28;20056;-41
2022/05/28 09:37:26;;;;;;;1.73;1.45;;;;;;;22.95;39.85;101220.97;5046198;28;19965;-42
2022/05/28 09:40:00;;;;;;;2.80;1.13;;;;;;;22.95;40.40;101234.09;5067119;28;20032;-41
2022/05/28 09:42:52;;;;;;;6.25;1.20;;;;;;;22.94;40.22;101221.81;5049297;28;20068;-44
2022/05/28 09:45:45;;;;;;;1.23;1.20;;;;;;;22.93;39.98;101240.19;5066235;28;20032;-42
2022/05/28 09:48:22;;;;;;;1.63;1.13;;;;;;;22.92;39.77;101228.81;5051392;28;20496;-42
2022/05/28 09:50:48;;;;;;;2.53;1.45;;;;;;;22.93;40.57;101237.56;5051195;28;20449;-42
2022/05/28 09:56:21;;;;;;;2.30;1.38;;;;;;;22.94;40.24;101231.44;5067551;28;20179;-42
2022/05/28 09:58:46;;;;;;;1.58;1.35;;;;;;;22.97;40.01;101227.09;5063692;28;20051;-41
2022/05/28 10:01:18;;;;;;;2.40;1.30;;;;;;;22.98;39.73;101223.59;5036687;28;20025;-41
2022/05/28 10:06:31;;;;;;;1.15;1.00;;;;;;;23.02;40.05;101225.38;5050521;28;20036;-41
2022/05/28 10:08:57;;;;;;;1.67;1.13;;;;;;;23.03;40.11;101226.25;5028459;28;20070;-42
2022/05/28 10:11:25;;;;;;;1.80;1.70;;;;;;;23.02;39.67;101225.38;5041644;28;20081;-44
2022/05/28 10:13:54;;;;;;;1.30;1.20;;;;;;;23.01;40.21;101218.38;5049723;28;20358;-46
2022/05/28 10:16:23;;;;;;;2.55;1.35;;;;;;;22.99;40.09;101225.38;5051470;28;20536;-41
2022/05/28 10:18:56;;;;;;;4.55;1.70;;;;;;;22.98;40.06;101223.59;5028443;28;20507;-48
2022/05/28 10:21:38;;;;;;;1.52;1.35;;;;;;;22.98;39.73;101239.38;5035139;28;20039;-42
2022/05/28 10:24:10;;;;;;;2.22;1.45;;;;;;;22.98;39.81;101227.97;5049340;28;20101;-44
2022/05/28 10:26:56;;;;;;;4.80;1.58;;;;;;;22.97;39.90;101220.97;5020123;28;20437;-48
2022/05/28 10:29:38;;;;;;;2.03;1.27;;;;;;;22.97;39.76;101229.72;5069669;28;20137;-52
2022/05/28 10:32:38;;;;;;;2.45;1.17;;;;;;;22.93;39.99;101217.44;5046902;28;20024;-46
2022/05/28 10:35:10;;;;;;;2.30;1.63;;;;;;;23.00;39.68;101216.63;5044338;28;20069;-47
2022/05/28 10:37:36;;;;;;;4.57;1.90;;;;;;;22.98;39.73;101213.09;5047524;28;20021;-43
2022/05/28 10:40:22;;;;;;;1.27;1.10;;;;;;;22.99;39.81;101229.72;5065135;28;20082;-42
2022/05/28 10:42:48;;;;;;;2.25;1.23;;;;;;;22.97;39.94;101220.97;5044328;28;20025;-41
2022/05/28 10:45:18;;;;;;;3.38;1.60;;;;;;;22.96;39.96;101230.59;5037031;28;20366;-46
2022/05/28 10:48:05;;;;;;;3.33;2.00;;;;;;;22.96;39.65;101214.84;5054345;28;20043;-48
2022/05/28 10:50:43;;;;;;;1.23;1.13;;;;;;;22.93;39.81;101225.31;5038726;28;20398;-42
2022/05/28 10:53:08;;;;;;;1.10;1.10;;;;;;;22.98;40.09;101223.59;5021397;28;20503;-43
2022/05/28 10:56:05;;;;;;;1.25;1.15;;;;;;;23.00;39.99;101224.50;5069802;28;20028;-44
2022/05/28 10:59:02;;;;;;;5.00;1.52;;;;;;;23.03;40.04;101237.66;5066191;28;20024;-44
2022/05/28 11:02:04;;;;;;;1.00;1.00;;;;;;;23.05;39.85;101221.88;5029785;28;20045;-44
2022/05/28 11:04:59;;;;;;;1.73;1.60;;;;;;;23.07;39.86;101227.16;5019932;28;20048;-47
2022/05/28 11:07:31;;;;;;;1.80;1.00;;;;;;;23.09;40.05;101220.16;5055278;28;20059;-43
2022/05/28 11:10:20;;;;;;;4.03;1.25;;;;;;;23.10;39.98;101209.66;5050813;28;20106;-42
2022/05/28 11:13:21;;;;;;;3.65;1.70;;;;;;;23.10;39.83;101206.16;5027388;28;20119;-41
2022/05/28 11:16:02;;;;;;;1.30;1.20;;;;;;;23.14;40.00;101207.94;5036467;28;20089;-44
2022/05/28 11:18:42;;;;;;;2.33;1.50;;;;;;;23.13;40.32;101214.06;5062154;28;20107;-46
2022/05/28 11:21:38;;;;;;;3.25;1.48;;;;;;;23.09;40.05;101230.69;5050564;28;20059;-46
2022/05/28 11:24:38;;;;;;;5.65;2.15;;;;;;;23.03;40.29;101242.91;5066526;28;20024;-41
2022/05/28 11:27:35;;;;;;;1.92;1.55;;;;;;;23.02;40.29;101264.78;5049912;28;20036;-41
2022/05/28 11:30:13;;;;;;;2.50;1.30;;;;;;;23.00;40.32;101253.38;5060317;28;20041;-44
2022/05/28 11:32:45;;;;;;;1.52;1.40;;;;;;;23.00;40.38;101268.25;5031212;28;20074;-41
2022/05/28 11:35:21;;;;;;;1.23;1.13;;;;;;;22.98;40.38;101268.25;5042234;28;20024;-43
2022/05/28 11:38:01;;;;;;;1.40;1.23;;;;;;;22.93;40.18;101272.59;5050978;28;20036;-44
2022/05/28 11:40:54;;;;;;;3.25;1.73;;;;;;;22.97;40.34;101279.63;5041177;28;20461;-42
2022/05/28 11:43:31;;;;;;;2.15;1.40;;;;;;;22.98;40.07;101270.00;5045824;28;20033;-42
2022/05/28 11:46:21;;;;;;;2.90;2.03;;;;;;;22.95;40.26;101270.88;5057946;28;20464;-41
2022/05/28 11:52:13;;;;;;;1.67;0.80;;;;;;;23.01;40.39;101265.66;5069169;28;20043;-42